sensor_id;sensor_type;location;lat;lon;timestamp;temperature;humidity
16970;DHT22;8601;48.718;8.992;2023-08-06T00:00:57;15.00;99.90
16970;DHT22;8601;48.718;8.992;2023-08-06T00:03:23;15.00;99.90
16970;DHT22;8601;48.718;8.992;2023-08-06T00:05:50;14.90;99.90
16970;DHT22;8601;48.718;8.992;2023-08-06T00:08:17;14.90;99.90
16970;DHT22;8601;48.718;8.992;2023-08-06T00:10:44;14.90;99.90
16970;DHT22;8601;48.718;8.992;2023-08-06T00:13:12;14.90;99.90
16970;DHT22;8601;48.718;8.992;2023-08-06T00:15:39;14.90;99.90
16970;DHT22;8601;48.718;8.992;2023-08-06T00:18:06;14.90;99.90
16970;DHT22;8601;48.718;8.992;2023-08-06T00:20:33;14.90;99.90
16970;DHT22;8601;48.718;8.992;2023-08-06T00:23:00;14.80;99.90
16970;DHT22;8601;48.718;8.992;2023-08-06T00:25:27;14.80;99.90
16970;DHT22;8601;48.718;8.992;2023-08-06T00:27:54;14.80;99.90
16970;DHT22;8601;48.718;8.992;2023-08-06T00:30:23;14.80;99.90
16970;DHT22;8601;48.718;8.992;2023-08-06T00:32:50;14.70;99.90
16970;DHT22;8601;48.718;8.992;2023-08-06T00:35:17;14.70;99.90
16970;DHT22;8601;48.718;8.992;2023-08-06T00:37:44;14.60;99.90
16970;DHT22;8601;48.718;8.992;2023-08-06T00:40:10;14.60;99.90
16970;DHT22;8601;48.718;8.992;2023-08-06T00:42:37;14.70;99.90
16970;DHT22;8601;48.718;8.992;2023-08-06T00:45:05;14.70;99.90
16970;DHT22;8601;48.718;8.992;2023-08-06T00:47:33;14.70;99.90
16970;DHT22;8601;48.718;8.992;2023-08-06T00:50:00;14.60;99.90
16970;DHT22;8601;48.718;8.992;2023-08-06T00:52:27;14.50;99.90
16970;DHT22;8601;48.718;8.992;2023-08-06T00:54:54;14.50;99.90
16970;DHT22;8601;48.718;8.992;2023-08-06T00:57:24;14.50;99.90
16970;DHT22;8601;48.718;8.992;2023-08-06T00:59:52;14.50;99.90
16970;DHT22;8601;48.718;8.992;2023-08-06T01:02:20;14.40;99.90
16970;DHT22;8601;48.718;8.992;2023-08-06T01:04:48;14.50;99.90
16970;DHT22;8601;48.718;8.992;2023-08-06T01:07:21;14.50;99.90
16970;DHT22;8601;48.718;8.992;2023-08-06T01:10:08;14.50;99.90
16970;DHT22;8601;48.718;8.992;2023-08-06T01:12:47;14.50;99.90
16970;DHT22;8601;48.718;8.992;2023-08-06T01:15:20;14.60;99.90
16970;DHT22;8601;48.718;8.992;2023-08-06T01:17:48;14.50;99.90
16970;DHT22;8601;48.718;8.992;2023-08-06T01:20:16;14.50;99.90
16970;DHT22;8601;48.718;8.992;2023-08-06T01:22:44;14.40;99.90
16970;DHT22;8601;48.718;8.992;2023-08-06T01:25:13;14.40;99.90
16970;DHT22;8601;48.718;8.992;2023-08-06T01:27:46;14.40;99.90
16970;DHT22;8601;48.718;8.992;2023-08-06T01:30:17;14.30;99.90
16970;DHT22;8601;48.718;8.992;2023-08-06T01:32:46;14.30;99.90
16970;DHT22;8601;48.718;8.992;2023-08-06T01:35:16;14.30;99.90
16970;DHT22;8601;48.718;8.992;2023-08-06T01:37:46;14.30;99.90
16970;DHT22;8601;48.718;8.992;2023-08-06T01:40:13;14.30;99.90
16970;DHT22;8601;48.718;8.992;2023-08-06T01:42:41;14.20;99.90
16970;DHT22;8601;48.718;8.992;2023-08-06T01:45:08;14.20;99.90
16970;DHT22;8601;48.718;8.992;2023-08-06T01:47:35;14.30;99.90
16970;DHT22;8601;48.718;8.992;2023-08-06T01:50:03;14.30;99.90
16970;DHT22;8601;48.718;8.992;2023-08-06T01:52:30;14.20;99.90
16970;DHT22;8601;48.718;8.992;2023-08-06T01:54:58;14.20;99.90
16970;DHT22;8601;48.718;8.992;2023-08-06T01:57:25;14.20;99.90
16970;DHT22;8601;48.718;8.992;2023-08-06T01:59:52;14.20;99.90
16970;DHT22;8601;48.718;8.992;2023-08-06T02:02:19;14.20;99.90
16970;DHT22;8601;48.718;8.992;2023-08-06T02:04:46;14.20;99.90
16970;DHT22;8601;48.718;8.992;2023-08-06T02:07:13;14.20;99.90
16970;DHT22;8601;48.718;8.992;2023-08-06T02:09:39;14.20;99.90
16970;DHT22;8601;48.718;8.992;2023-08-06T02:12:08;14.10;99.90
16970;DHT22;8601;48.718;8.992;2023-08-06T02:14:35;14.10;99.90
16970;DHT22;8601;48.718;8.992;2023-08-06T02:17:02;14.10;99.90
16970;DHT22;8601;48.718;8.992;2023-08-06T02:19:29;14.10;99.90
16970;DHT22;8601;48.718;8.992;2023-08-06T02:21:56;14.00;99.90
16970;DHT22;8601;48.718;8.992;2023-08-06T02:24:23;14.00;99.90
16970;DHT22;8601;48.718;8.992;2023-08-06T02:26:50;13.90;99.90
16970;DHT22;8601;48.718;8.992;2023-08-06T02:29:22;13.90;99.90
16970;DHT22;8601;48.718;8.992;2023-08-06T02:31:49;13.90;99.90
16970;DHT22;8601;48.718;8.992;2023-08-06T02:34:16;13.90;99.90
16970;DHT22;8601;48.718;8.992;2023-08-06T02:36:43;13.90;99.90
16970;DHT22;8601;48.718;8.992;2023-08-06T02:39:09;13.90;99.90
16970;DHT22;8601;48.718;8.992;2023-08-06T02:41:36;13.90;99.90
16970;DHT22;8601;48.718;8.992;2023-08-06T02:44:03;13.90;99.90
16970;DHT22;8601;48.718;8.992;2023-08-06T02:46:32;14.00;99.90
16970;DHT22;8601;48.718;8.992;2023-08-06T02:48:59;13.90;99.90
16970;DHT22;8601;48.718;8.992;2023-08-06T02:51:25;13.90;99.90
16970;DHT22;8601;48.718;8.992;2023-08-06T02:53:52;13.90;99.90
16970;DHT22;8601;48.718;8.992;2023-08-06T02:56:19;13.90;99.90
16970;DHT22;8601;48.718;8.992;2023-08-06T02:58:46;13.90;99.90
16970;DHT22;8601;48.718;8.992;2023-08-06T03:01:14;13.80;99.90
16970;DHT22;8601;48.718;8.992;2023-08-06T03:03:42;13.90;99.90
16970;DHT22;8601;48.718;8.992;2023-08-06T03:06:09;13.90;99.90
16970;DHT22;8601;48.718;8.992;2023-08-06T03:08:36;13.90;99.90
16970;DHT22;8601;48.718;8.992;2023-08-06T03:11:03;13.80;99.90
16970;DHT22;8601;48.718;8.992;2023-08-06T03:13:30;13.90;99.90
16970;DHT22;8601;48.718;8.992;2023-08-06T03:15:58;13.90;99.90
16970;DHT22;8601;48.718;8.992;2023-08-06T03:18:26;13.90;99.90
16970;DHT22;8601;48.718;8.992;2023-08-06T03:20:55;13.80;99.90
16970;DHT22;8601;48.718;8.992;2023-08-06T03:23:22;13.80;99.90
16970;DHT22;8601;48.718;8.992;2023-08-06T03:25:49;13.90;99.90
16970;DHT22;8601;48.718;8.992;2023-08-06T03:28:16;13.80;99.90
16970;DHT22;8601;48.718;8.992;2023-08-06T03:30:43;13.80;99.90
16970;DHT22;8601;48.718;8.992;2023-08-06T03:33:10;13.80;99.90
16970;DHT22;8601;48.718;8.992;2023-08-06T03:35:37;13.80;99.90
16970;DHT22;8601;48.718;8.992;2023-08-06T03:38:05;13.90;99.90
16970;DHT22;8601;48.718;8.992;2023-08-06T03:40:34;14.00;99.90
16970;DHT22;8601;48.718;8.992;2023-08-06T03:43:01;13.90;99.90
16970;DHT22;8601;48.718;8.992;2023-08-06T03:45:28;13.90;99.90
16970;DHT22;8601;48.718;8.992;2023-08-06T03:47:55;14.00;99.90
16970;DHT22;8601;48.718;8.992;2023-08-06T03:50:22;14.00;99.90
16970;DHT22;8601;48.718;8.992;2023-08-06T03:52:49;14.00;99.90
16970;DHT22;8601;48.718;8.992;2023-08-06T03:55:17;14.00;99.90
16970;DHT22;8601;48.718;8.992;2023-08-06T03:57:44;14.00;99.90
16970;DHT22;8601;48.718;8.992;2023-08-06T04:00:11;14.00;99.90
16970;DHT22;8601;48.718;8.992;2023-08-06T04:02:39;14.00;99.90
16970;DHT22;8601;48.718;8.992;2023-08-06T04:05:06;14.00;99.90
16970;DHT22;8601;48.718;8.992;2023-08-06T04:07:33;14.00;99.90
16970;DHT22;8601;48.718;8.992;2023-08-06T04:10:01;14.00;99.90
16970;DHT22;8601;48.718;8.992;2023-08-06T04:12:31;13.90;99.90
16970;DHT22;8601;48.718;8.992;2023-08-06T04:14:58;13.90;99.90
16970;DHT22;8601;48.718;8.992;2023-08-06T04:17:25;13.90;99.90
16970;DHT22;8601;48.718;8.992;2023-08-06T04:19:53;13.90;99.90
16970;DHT22;8601;48.718;8.992;2023-08-06T04:22:21;13.90;99.90
16970;DHT22;8601;48.718;8.992;2023-08-06T04:24:48;13.80;99.90
16970;DHT22;8601;48.718;8.992;2023-08-06T04:27:16;13.80;99.90
16970;DHT22;8601;48.718;8.992;2023-08-06T04:29:44;13.80;99.90
16970;DHT22;8601;48.718;8.992;2023-08-06T04:32:12;13.70;99.90
16970;DHT22;8601;48.718;8.992;2023-08-06T04:34:39;13.60;99.90
16970;DHT22;8601;48.718;8.992;2023-08-06T04:37:06;13.60;99.90
16970;DHT22;8601;48.718;8.992;2023-08-06T04:39:33;13.60;99.90
16970;DHT22;8601;48.718;8.992;2023-08-06T04:41:59;13.60;99.90
16970;DHT22;8601;48.718;8.992;2023-08-06T04:44:26;13.60;99.90
16970;DHT22;8601;48.718;8.992;2023-08-06T04:46:54;13.70;99.90
16970;DHT22;8601;48.718;8.992;2023-08-06T04:49:21;13.60;99.90
16970;DHT22;8601;48.718;8.992;2023-08-06T04:51:48;13.60;99.90
16970;DHT22;8601;48.718;8.992;2023-08-06T04:54:15;13.60;99.90
16970;DHT22;8601;48.718;8.992;2023-08-06T04:56:42;13.60;99.90
16970;DHT22;8601;48.718;8.992;2023-08-06T04:59:09;13.60;99.90
16970;DHT22;8601;48.718;8.992;2023-08-06T05:01:35;13.50;99.90
16970;DHT22;8601;48.718;8.992;2023-08-06T05:04:04;13.50;99.90
16970;DHT22;8601;48.718;8.992;2023-08-06T05:06:30;13.50;99.90
16970;DHT22;8601;48.718;8.992;2023-08-06T05:08:57;13.50;99.90
16970;DHT22;8601;48.718;8.992;2023-08-06T05:11:24;13.50;99.90
16970;DHT22;8601;48.718;8.992;2023-08-06T05:13:52;13.40;99.90
16970;DHT22;8601;48.718;8.992;2023-08-06T05:16:19;13.50;99.90
16970;DHT22;8601;48.718;8.992;2023-08-06T05:18:46;13.60;99.90
16970;DHT22;8601;48.718;8.992;2023-08-06T05:21:14;13.60;99.90
16970;DHT22;8601;48.718;8.992;2023-08-06T05:23:42;13.60;99.90
16970;DHT22;8601;48.718;8.992;2023-08-06T05:26:09;13.80;99.90
16970;DHT22;8601;48.718;8.992;2023-08-06T05:28:36;13.90;99.90
16970;DHT22;8601;48.718;8.992;2023-08-06T05:31:03;13.90;99.90
16970;DHT22;8601;48.718;8.992;2023-08-06T05:33:30;13.90;99.90
16970;DHT22;8601;48.718;8.992;2023-08-06T05:35:57;14.00;99.90
16970;DHT22;8601;48.718;8.992;2023-08-06T05:38:26;14.00;99.90
16970;DHT22;8601;48.718;8.992;2023-08-06T05:40:53;14.10;99.90
16970;DHT22;8601;48.718;8.992;2023-08-06T05:43:20;14.00;99.90
16970;DHT22;8601;48.718;8.992;2023-08-06T05:45:49;14.00;99.90
16970;DHT22;8601;48.718;8.992;2023-08-06T05:48:16;14.00;99.90
16970;DHT22;8601;48.718;8.992;2023-08-06T05:50:43;14.00;99.90
16970;DHT22;8601;48.718;8.992;2023-08-06T05:53:10;14.00;99.90
16970;DHT22;8601;48.718;8.992;2023-08-06T05:55:38;13.90;99.90
16970;DHT22;8601;48.718;8.992;2023-08-06T05:58:05;13.90;99.90
16970;DHT22;8601;48.718;8.992;2023-08-06T06:00:32;13.80;99.90
16970;DHT22;8601;48.718;8.992;2023-08-06T06:03:00;13.80;99.90
16970;DHT22;8601;48.718;8.992;2023-08-06T06:05:27;13.90;99.90
16970;DHT22;8601;48.718;8.992;2023-08-06T06:07:54;13.80;99.90
16970;DHT22;8601;48.718;8.992;2023-08-06T06:10:21;13.90;99.90
16970;DHT22;8601;48.718;8.992;2023-08-06T06:12:49;13.90;99.90
16970;DHT22;8601;48.718;8.992;2023-08-06T06:15:16;13.90;99.90
16970;DHT22;8601;48.718;8.992;2023-08-06T06:17:43;13.90;99.90
16970;DHT22;8601;48.718;8.992;2023-08-06T06:20:10;13.90;99.90
16970;DHT22;8601;48.718;8.992;2023-08-06T06:22:37;13.90;99.90
16970;DHT22;8601;48.718;8.992;2023-08-06T06:25:05;13.90;99.90
16970;DHT22;8601;48.718;8.992;2023-08-06T06:27:32;13.90;99.90
16970;DHT22;8601;48.718;8.992;2023-08-06T06:30:00;13.90;99.90
16970;DHT22;8601;48.718;8.992;2023-08-06T06:32:27;14.00;99.90
16970;DHT22;8601;48.718;8.992;2023-08-06T06:34:54;13.90;99.90
16970;DHT22;8601;48.718;8.992;2023-08-06T06:37:21;14.00;99.90
16970;DHT22;8601;48.718;8.992;2023-08-06T06:39:48;14.00;99.90
16970;DHT22;8601;48.718;8.992;2023-08-06T06:42:15;14.00;99.90
16970;DHT22;8601;48.718;8.992;2023-08-06T06:44:42;14.10;99.90
16970;DHT22;8601;48.718;8.992;2023-08-06T06:47:11;14.10;99.90
16970;DHT22;8601;48.718;8.992;2023-08-06T06:49:37;14.00;99.90
16970;DHT22;8601;48.718;8.992;2023-08-06T06:52:05;14.00;99.90
16970;DHT22;8601;48.718;8.992;2023-08-06T06:54:32;14.00;99.90
16970;DHT22;8601;48.718;8.992;2023-08-06T06:56:59;13.90;99.90
16970;DHT22;8601;48.718;8.992;2023-08-06T06:59:26;13.90;99.90
16970;DHT22;8601;48.718;8.992;2023-08-06T07:01:53;13.80;99.90
16970;DHT22;8601;48.718;8.992;2023-08-06T07:04:21;13.70;99.90
16970;DHT22;8601;48.718;8.992;2023-08-06T07:06:48;13.60;99.90
16970;DHT22;8601;48.718;8.992;2023-08-06T07:09:15;13.60;99.90
16970;DHT22;8601;48.718;8.992;2023-08-06T07:11:42;13.80;99.90
16970;DHT22;8601;48.718;8.992;2023-08-06T07:14:09;13.90;99.90
16970;DHT22;8601;48.718;8.992;2023-08-06T07:16:36;13.80;99.90
16970;DHT22;8601;48.718;8.992;2023-08-06T07:19:03;13.70;99.90
16970;DHT22;8601;48.718;8.992;2023-08-06T07:21:32;13.80;99.90
16970;DHT22;8601;48.718;8.992;2023-08-06T07:23:59;13.70;99.90
16970;DHT22;8601;48.718;8.992;2023-08-06T07:26:26;13.70;99.90
16970;DHT22;8601;48.718;8.992;2023-08-06T07:28:53;13.80;99.90
16970;DHT22;8601;48.718;8.992;2023-08-06T07:31:19;13.70;99.90
16970;DHT22;8601;48.718;8.992;2023-08-06T07:33:46;13.70;99.90
16970;DHT22;8601;48.718;8.992;2023-08-06T07:36:14;13.80;99.90
16970;DHT22;8601;48.718;8.992;2023-08-06T07:38:42;13.70;99.90
16970;DHT22;8601;48.718;8.992;2023-08-06T07:41:13;13.60;99.90
16970;DHT22;8601;48.718;8.992;2023-08-06T07:43:40;13.60;99.90
16970;DHT22;8601;48.718;8.992;2023-08-06T07:46:08;13.70;99.90
16970;DHT22;8601;48.718;8.992;2023-08-06T07:48:35;13.60;99.90
16970;DHT22;8601;48.718;8.992;2023-08-06T07:51:01;13.60;99.90
16970;DHT22;8601;48.718;8.992;2023-08-06T07:53:28;13.60;99.90
16970;DHT22;8601;48.718;8.992;2023-08-06T07:55:57;13.70;99.90
16970;DHT22;8601;48.718;8.992;2023-08-06T07:58:25;13.70;99.90
16970;DHT22;8601;48.718;8.992;2023-08-06T08:00:52;13.80;99.90
16970;DHT22;8601;48.718;8.992;2023-08-06T08:03:18;13.90;99.90
16970;DHT22;8601;48.718;8.992;2023-08-06T08:05:46;14.00;99.90
16970;DHT22;8601;48.718;8.992;2023-08-06T08:08:13;13.90;99.90
16970;DHT22;8601;48.718;8.992;2023-08-06T08:10:41;14.00;99.90
16970;DHT22;8601;48.718;8.992;2023-08-06T08:13:10;14.00;99.90
16970;DHT22;8601;48.718;8.992;2023-08-06T08:15:37;14.00;99.90
16970;DHT22;8601;48.718;8.992;2023-08-06T08:18:04;14.10;99.90
16970;DHT22;8601;48.718;8.992;2023-08-06T08:20:30;14.10;99.90
16970;DHT22;8601;48.718;8.992;2023-08-06T08:22:59;14.10;99.90
16970;DHT22;8601;48.718;8.992;2023-08-06T08:25:26;14.00;99.90
16970;DHT22;8601;48.718;8.992;2023-08-06T08:27:54;13.90;99.90
16970;DHT22;8601;48.718;8.992;2023-08-06T08:30:22;13.90;99.90
16970;DHT22;8601;48.718;8.992;2023-08-06T08:32:50;13.80;99.90
16970;DHT22;8601;48.718;8.992;2023-08-06T08:35:17;13.80;99.90
16970;DHT22;8601;48.718;8.992;2023-08-06T08:37:44;13.80;99.90
16970;DHT22;8601;48.718;8.992;2023-08-06T08:40:11;13.80;99.90
16970;DHT22;8601;48.718;8.992;2023-08-06T08:42:39;13.70;99.90
16970;DHT22;8601;48.718;8.992;2023-08-06T08:45:12;13.70;99.90
16970;DHT22;8601;48.718;8.992;2023-08-06T08:47:41;13.80;99.90
16970;DHT22;8601;48.718;8.992;2023-08-06T08:50:09;13.80;99.90
16970;DHT22;8601;48.718;8.992;2023-08-06T08:52:38;13.80;99.90
16970;DHT22;8601;48.718;8.992;2023-08-06T08:55:07;13.90;99.90
16970;DHT22;8601;48.718;8.992;2023-08-06T08:57:35;14.00;99.90
16970;DHT22;8601;48.718;8.992;2023-08-06T09:00:02;14.10;99.90
16970;DHT22;8601;48.718;8.992;2023-08-06T09:02:31;14.20;99.90
16970;DHT22;8601;48.718;8.992;2023-08-06T09:05:00;14.10;99.90
16970;DHT22;8601;48.718;8.992;2023-08-06T09:07:32;14.20;99.90
16970;DHT22;8601;48.718;8.992;2023-08-06T09:10:02;14.40;99.90
16970;DHT22;8601;48.718;8.992;2023-08-06T09:12:30;14.40;99.90
16970;DHT22;8601;48.718;8.992;2023-08-06T09:14:57;14.50;99.90
16970;DHT22;8601;48.718;8.992;2023-08-06T09:17:25;14.70;99.90
16970;DHT22;8601;48.718;8.992;2023-08-06T09:19:53;14.50;99.90
16970;DHT22;8601;48.718;8.992;2023-08-06T09:22:22;14.50;99.90
16970;DHT22;8601;48.718;8.992;2023-08-06T09:24:50;14.50;99.90
16970;DHT22;8601;48.718;8.992;2023-08-06T09:27:18;14.50;99.90
16970;DHT22;8601;48.718;8.992;2023-08-06T09:29:45;14.50;99.90
16970;DHT22;8601;48.718;8.992;2023-08-06T09:32:12;14.40;99.90
16970;DHT22;8601;48.718;8.992;2023-08-06T09:34:41;14.30;99.90
16970;DHT22;8601;48.718;8.992;2023-08-06T09:37:09;14.30;99.90
16970;DHT22;8601;48.718;8.992;2023-08-06T09:39:39;14.30;99.90
16970;DHT22;8601;48.718;8.992;2023-08-06T09:42:07;14.40;99.90
16970;DHT22;8601;48.718;8.992;2023-08-06T09:44:34;14.40;99.90
16970;DHT22;8601;48.718;8.992;2023-08-06T09:47:03;14.40;99.90
16970;DHT22;8601;48.718;8.992;2023-08-06T09:49:41;14.40;99.90
16970;DHT22;8601;48.718;8.992;2023-08-06T09:52:11;14.40;99.90
16970;DHT22;8601;48.718;8.992;2023-08-06T09:54:39;14.40;99.90
16970;DHT22;8601;48.718;8.992;2023-08-06T09:57:08;14.40;99.90
16970;DHT22;8601;48.718;8.992;2023-08-06T09:59:35;14.30;99.90
16970;DHT22;8601;48.718;8.992;2023-08-06T10:02:12;14.40;99.90
16970;DHT22;8601;48.718;8.992;2023-08-06T10:04:39;14.30;99.90
16970;DHT22;8601;48.718;8.992;2023-08-06T10:07:06;14.30;99.90
16970;DHT22;8601;48.718;8.992;2023-08-06T10:09:33;14.10;99.90
16970;DHT22;8601;48.718;8.992;2023-08-06T10:12:01;14.10;99.90
16970;DHT22;8601;48.718;8.992;2023-08-06T10:14:32;14.10;99.90
16970;DHT22;8601;48.718;8.992;2023-08-06T10:16:59;14.10;99.90
16970;DHT22;8601;48.718;8.992;2023-08-06T10:19:27;14.00;99.90
16970;DHT22;8601;48.718;8.992;2023-08-06T10:22:15;13.90;99.90
16970;DHT22;8601;48.718;8.992;2023-08-06T10:24:50;14.10;99.90
16970;DHT22;8601;48.718;8.992;2023-08-06T10:27:22;13.90;99.90
16970;DHT22;8601;48.718;8.992;2023-08-06T10:29:49;13.90;99.90
16970;DHT22;8601;48.718;8.992;2023-08-06T10:32:16;14.00;99.90
16970;DHT22;8601;48.718;8.992;2023-08-06T10:34:55;14.00;99.90
16970;DHT22;8601;48.718;8.992;2023-08-06T10:37:23;13.90;99.90
16970;DHT22;8601;48.718;8.992;2023-08-06T10:39:50;13.90;99.90
16970;DHT22;8601;48.718;8.992;2023-08-06T10:42:28;13.90;99.90
16970;DHT22;8601;48.718;8.992;2023-08-06T10:45:12;14.00;99.90
16970;DHT22;8601;48.718;8.992;2023-08-06T10:47:39;14.00;99.90
16970;DHT22;8601;48.718;8.992;2023-08-06T10:50:07;14.00;99.90
16970;DHT22;8601;48.718;8.992;2023-08-06T10:52:34;14.00;99.90
16970;DHT22;8601;48.718;8.992;2023-08-06T10:55:01;14.10;99.90
16970;DHT22;8601;48.718;8.992;2023-08-06T10:57:30;14.10;99.90
16970;DHT22;8601;48.718;8.992;2023-08-06T10:59:56;14.10;99.90
16970;DHT22;8601;48.718;8.992;2023-08-06T11:02:23;14.20;99.90
16970;DHT22;8601;48.718;8.992;2023-08-06T11:04:51;14.00;99.90
16970;DHT22;8601;48.718;8.992;2023-08-06T11:07:18;14.00;99.90
16970;DHT22;8601;48.718;8.992;2023-08-06T11:09:44;13.90;99.90
16970;DHT22;8601;48.718;8.992;2023-08-06T11:12:11;13.90;99.90
16970;DHT22;8601;48.718;8.992;2023-08-06T11:14:39;13.90;99.90
16970;DHT22;8601;48.718;8.992;2023-08-06T11:17:06;13.90;99.90
16970;DHT22;8601;48.718;8.992;2023-08-06T11:19:33;13.90;99.90
16970;DHT22;8601;48.718;8.992;2023-08-06T11:22:01;13.90;99.90
16970;DHT22;8601;48.718;8.992;2023-08-06T11:24:28;13.90;99.90
16970;DHT22;8601;48.718;8.992;2023-08-06T11:26:55;13.90;99.90
16970;DHT22;8601;48.718;8.992;2023-08-06T11:29:23;13.80;99.90
16970;DHT22;8601;48.718;8.992;2023-08-06T11:31:53;13.90;99.90
16970;DHT22;8601;48.718;8.992;2023-08-06T11:34:19;13.80;99.90
16970;DHT22;8601;48.718;8.992;2023-08-06T11:36:46;13.80;99.90
16970;DHT22;8601;48.718;8.992;2023-08-06T11:39:13;13.90;99.90
16970;DHT22;8601;48.718;8.992;2023-08-06T11:41:40;13.90;99.90
16970;DHT22;8601;48.718;8.992;2023-08-06T11:44:10;13.90;99.90
16970;DHT22;8601;48.718;8.992;2023-08-06T11:46:53;13.90;99.90
16970;DHT22;8601;48.718;8.992;2023-08-06T11:52:09;13.80;99.90
16970;DHT22;8601;48.718;8.992;2023-08-06T11:54:36;13.80;99.90
16970;DHT22;8601;48.718;8.992;2023-08-06T11:57:04;13.80;99.90
16970;DHT22;8601;48.718;8.992;2023-08-06T11:59:31;13.90;99.90
16970;DHT22;8601;48.718;8.992;2023-08-06T12:02:01;13.90;99.90
16970;DHT22;8601;48.718;8.992;2023-08-06T12:04:30;14.00;99.90
16970;DHT22;8601;48.718;8.992;2023-08-06T12:07:04;14.00;99.90
16970;DHT22;8601;48.718;8.992;2023-08-06T12:09:31;13.90;99.90
16970;DHT22;8601;48.718;8.992;2023-08-06T12:11:59;13.90;99.90
16970;DHT22;8601;48.718;8.992;2023-08-06T12:14:26;13.90;99.90
16970;DHT22;8601;48.718;8.992;2023-08-06T12:16:52;13.80;99.90
16970;DHT22;8601;48.718;8.992;2023-08-06T12:19:21;13.70;99.90
16970;DHT22;8601;48.718;8.992;2023-08-06T12:21:48;13.60;99.90
16970;DHT22;8601;48.718;8.992;2023-08-06T12:24:15;13.50;99.90
16970;DHT22;8601;48.718;8.992;2023-08-06T12:26:42;13.50;99.90
16970;DHT22;8601;48.718;8.992;2023-08-06T12:29:09;13.60;99.90
16970;DHT22;8601;48.718;8.992;2023-08-06T12:31:36;13.60;99.90
16970;DHT22;8601;48.718;8.992;2023-08-06T12:34:03;13.80;99.90
16970;DHT22;8601;48.718;8.992;2023-08-06T12:36:31;13.90;99.90
16970;DHT22;8601;48.718;8.992;2023-08-06T12:38:58;13.90;99.90
16970;DHT22;8601;48.718;8.992;2023-08-06T12:41:25;14.00;99.90
16970;DHT22;8601;48.718;8.992;2023-08-06T12:43:54;13.80;99.90
16970;DHT22;8601;48.718;8.992;2023-08-06T12:46:21;13.90;99.90
16970;DHT22;8601;48.718;8.992;2023-08-06T12:48:48;13.90;99.90
16970;DHT22;8601;48.718;8.992;2023-08-06T12:51:15;14.00;99.90
16970;DHT22;8601;48.718;8.992;2023-08-06T12:53:43;14.00;99.90
16970;DHT22;8601;48.718;8.992;2023-08-06T12:56:10;14.20;99.90
16970;DHT22;8601;48.718;8.992;2023-08-06T12:58:37;14.20;99.90
16970;DHT22;8601;48.718;8.992;2023-08-06T13:01:05;14.30;99.90
16970;DHT22;8601;48.718;8.992;2023-08-06T13:03:32;14.30;99.90
16970;DHT22;8601;48.718;8.992;2023-08-06T13:05:59;14.20;99.90
16970;DHT22;8601;48.718;8.992;2023-08-06T13:08:25;14.30;99.90
16970;DHT22;8601;48.718;8.992;2023-08-06T13:10:54;14.40;99.90
16970;DHT22;8601;48.718;8.992;2023-08-06T13:13:21;14.60;99.90
16970;DHT22;8601;48.718;8.992;2023-08-06T13:15:47;14.80;99.90
16970;DHT22;8601;48.718;8.992;2023-08-06T13:18:15;15.00;99.90
16970;DHT22;8601;48.718;8.992;2023-08-06T13:20:41;15.10;99.90
16970;DHT22;8601;48.718;8.992;2023-08-06T13:23:08;15.20;99.90
16970;DHT22;8601;48.718;8.992;2023-08-06T13:25:35;15.20;99.90
16970;DHT22;8601;48.718;8.992;2023-08-06T13:28:05;15.00;99.90
16970;DHT22;8601;48.718;8.992;2023-08-06T13:30:33;15.00;99.90
16970;DHT22;8601;48.718;8.992;2023-08-06T13:33:01;15.00;99.90
16970;DHT22;8601;48.718;8.992;2023-08-06T13:35:30;14.80;99.90
16970;DHT22;8601;48.718;8.992;2023-08-06T13:37:56;14.70;99.90
16970;DHT22;8601;48.718;8.992;2023-08-06T13:40:23;14.70;99.90
16970;DHT22;8601;48.718;8.992;2023-08-06T13:42:50;14.60;99.90
16970;DHT22;8601;48.718;8.992;2023-08-06T13:45:19;14.50;99.90
16970;DHT22;8601;48.718;8.992;2023-08-06T13:47:46;14.50;99.90
16970;DHT22;8601;48.718;8.992;2023-08-06T13:50:13;14.60;99.90
16970;DHT22;8601;48.718;8.992;2023-08-06T13:52:40;14.60;99.90
16970;DHT22;8601;48.718;8.992;2023-08-06T13:55:08;14.60;99.90
16970;DHT22;8601;48.718;8.992;2023-08-06T13:57:35;14.60;99.90
16970;DHT22;8601;48.718;8.992;2023-08-06T14:00:03;14.60;99.90
16970;DHT22;8601;48.718;8.992;2023-08-06T14:02:32;14.80;99.90
16970;DHT22;8601;48.718;8.992;2023-08-06T14:04:59;14.90;99.90
16970;DHT22;8601;48.718;8.992;2023-08-06T14:07:26;14.90;99.90
16970;DHT22;8601;48.718;8.992;2023-08-06T14:09:53;14.90;99.90
16970;DHT22;8601;48.718;8.992;2023-08-06T14:12:20;14.90;99.90
16970;DHT22;8601;48.718;8.992;2023-08-06T14:14:46;14.90;99.90
16970;DHT22;8601;48.718;8.992;2023-08-06T14:17:13;14.90;99.90
16970;DHT22;8601;48.718;8.992;2023-08-06T14:19:42;14.90;99.90
16970;DHT22;8601;48.718;8.992;2023-08-06T14:22:09;15.00;99.90
16970;DHT22;8601;48.718;8.992;2023-08-06T14:24:36;14.90;99.90
16970;DHT22;8601;48.718;8.992;2023-08-06T14:27:03;14.60;99.90
16970;DHT22;8601;48.718;8.992;2023-08-06T14:29:31;14.20;99.90
16970;DHT22;8601;48.718;8.992;2023-08-06T14:32:00;13.90;99.90
16970;DHT22;8601;48.718;8.992;2023-08-06T14:34:27;13.80;99.90
16970;DHT22;8601;48.718;8.992;2023-08-06T14:36:55;13.80;99.90
16970;DHT22;8601;48.718;8.992;2023-08-06T14:39:22;13.70;99.90
16970;DHT22;8601;48.718;8.992;2023-08-06T14:41:50;13.60;99.90
16970;DHT22;8601;48.718;8.992;2023-08-06T14:44:17;13.60;99.90
16970;DHT22;8601;48.718;8.992;2023-08-06T14:46:43;13.80;99.90
16970;DHT22;8601;48.718;8.992;2023-08-06T14:49:11;13.90;99.90
16970;DHT22;8601;48.718;8.992;2023-08-06T14:51:38;14.00;99.90
16970;DHT22;8601;48.718;8.992;2023-08-06T14:54:06;14.20;99.90
16970;DHT22;8601;48.718;8.992;2023-08-06T14:56:33;14.10;99.90
16970;DHT22;8601;48.718;8.992;2023-08-06T14:59:00;14.00;99.90
16970;DHT22;8601;48.718;8.992;2023-08-06T15:01:27;14.00;99.90
16970;DHT22;8601;48.718;8.992;2023-08-06T15:03:54;14.00;99.90
16970;DHT22;8601;48.718;8.992;2023-08-06T15:06:21;14.00;99.90
16970;DHT22;8601;48.718;8.992;2023-08-06T15:08:48;13.90;99.90
16970;DHT22;8601;48.718;8.992;2023-08-06T15:11:16;14.00;99.90
16970;DHT22;8601;48.718;8.992;2023-08-06T15:13:43;14.20;99.90
16970;DHT22;8601;48.718;8.992;2023-08-06T15:16:10;14.40;99.90
16970;DHT22;8601;48.718;8.992;2023-08-06T15:18:37;14.60;99.90
16970;DHT22;8601;48.718;8.992;2023-08-06T15:21:04;14.70;99.90
16970;DHT22;8601;48.718;8.992;2023-08-06T15:23:31;14.80;99.90
16970;DHT22;8601;48.718;8.992;2023-08-06T15:25:58;14.90;99.90
16970;DHT22;8601;48.718;8.992;2023-08-06T15:28:26;14.90;99.90
16970;DHT22;8601;48.718;8.992;2023-08-06T15:30:54;14.90;99.90
16970;DHT22;8601;48.718;8.992;2023-08-06T15:33:22;14.70;99.90
16970;DHT22;8601;48.718;8.992;2023-08-06T15:35:49;14.70;99.90
16970;DHT22;8601;48.718;8.992;2023-08-06T15:38:15;15.00;99.90
16970;DHT22;8601;48.718;8.992;2023-08-06T15:40:42;15.40;99.90
16970;DHT22;8601;48.718;8.992;2023-08-06T15:43:10;15.60;99.90
16970;DHT22;8601;48.718;8.992;2023-08-06T15:45:38;15.50;99.90
16970;DHT22;8601;48.718;8.992;2023-08-06T15:48:05;15.50;99.90
16970;DHT22;8601;48.718;8.992;2023-08-06T15:50:36;15.70;99.90